createdAt,value
2022-08-14T00:01:55.199Z,101095.25
2022-08-14T00:04:34.410Z,101086.78
2022-08-14T00:07:03.237Z,101085.31
2022-08-14T00:09:33.072Z,101076.84
2022-08-14T00:12:01.007Z,101078.31
2022-08-14T00:14:29.571Z,101078.56
2022-08-14T00:16:57.390Z,101083.41
2022-08-14T00:19:28.793Z,101079.09
2022-08-14T00:21:56.749Z,101091.84
2022-08-14T00:24:29.018Z,101100.69
2022-08-14T00:27:02.053Z,101124.81
2022-08-14T00:29:39.846Z,101150.25
2022-08-14T00:32:50.545Z,101156.66
2022-08-14T00:35:01.213Z,101162.06
2022-08-14T00:37:29.569Z,101181.78
2022-08-14T00:40:00.450Z,101170.94
2022-08-14T00:42:55.393Z,101180.97
2022-08-14T00:45:19.367Z,101219.44
2022-08-14T00:47:50.585Z,101218.09
2022-08-14T00:50:21.974Z,101206.81
2022-08-14T00:52:53.629Z,101216.53
2022-08-14T00:55:21.972Z,101220.50
2022-08-14T00:58:32.463Z,101204.16
2022-08-14T01:01:02.173Z,101207.25
2022-08-14T01:03:30.835Z,101183.56
2022-08-14T01:06:00.747Z,101186.19
2022-08-14T01:08:51.414Z,101193.53
2022-08-14T01:11:23.592Z,101175.16
2022-08-14T01:13:56.013Z,101169.16
2022-08-14T01:16:30.994Z,101178.47
2022-08-14T01:19:16.949Z,101196.25
2022-08-14T01:21:52.723Z,101200.09
2022-08-14T01:24:24.777Z,101206.59
2022-08-14T01:27:00.522Z,101200.81
2022-08-14T01:29:43.148Z,101185.25
2022-08-14T01:32:23.306Z,101183.22
2022-08-14T01:35:17.636Z,101170.06
2022-08-14T01:37:46.796Z,101180.16
2022-08-14T01:40:25.734Z,101174.69
2022-08-14T01:43:02.566Z,101200.47
2022-08-14T01:45:40.019Z,101254.47
2022-08-14T01:48:13.495Z,101274.34
2022-08-14T01:50:42.688Z,101269.84
2022-08-14T01:53:13.691Z,101272.63
2022-08-14T01:55:42.432Z,101248.06
2022-08-14T01:58:19.851Z,101239.56
2022-08-14T02:00:54.711Z,101263.09
2022-08-14T02:03:24.441Z,101269.59
2022-08-14T02:05:59.566Z,101316.56
2022-08-14T02:08:35.044Z,101348.31
2022-08-14T02:11:33.574Z,101363.50
2022-08-14T02:14:07.055Z,101371.88
2022-08-14T02:16:39.066Z,101360.81
2022-08-14T02:19:09.536Z,101340.19
2022-08-14T02:21:43.786Z,101317.50
2022-08-14T02:24:40.196Z,101278.41
2022-08-14T02:28:22.427Z,101287.38
2022-08-14T02:30:00.171Z,101339.00
2022-08-14T02:32:30.379Z,101374.22
2022-08-14T02:35:17.973Z,101377.59
2022-08-14T02:37:48.449Z,101388.53
2022-08-14T02:40:18.800Z,101379.78
2022-08-14T02:42:54.704Z,101378.59
2022-08-14T02:45:25.633Z,101403.88
2022-08-14T02:48:02.108Z,101414.25
2022-08-14T02:50:33.703Z,101435.84
2022-08-14T02:53:03.374Z,101436.38
2022-08-14T02:55:33.259Z,101438.78
2022-08-14T02:58:03.708Z,101445.00
2022-08-14T03:00:35.419Z,101456.66
2022-08-14T03:03:08.345Z,101453.47
2022-08-14T03:05:41.329Z,101453.91
2022-08-14T03:08:16.007Z,101494.25
2022-08-14T03:10:50.137Z,101511.00
2022-08-14T03:13:21.653Z,101525.81
2022-08-14T03:15:56.085Z,101522.22
2022-08-14T03:18:31.083Z,101499.16
2022-08-14T03:21:02.118Z,101503.13
2022-08-14T03:23:38.000Z,101516.69
2022-08-14T03:26:12.564Z,101508.97
2022-08-14T03:28:47.371Z,101505.25
2022-08-14T03:31:15.583Z,101500.25
2022-08-14T03:33:44.389Z,101484.44
2022-08-14T03:37:38.142Z,101460.03
2022-08-14T03:39:13.171Z,101424.78
2022-08-14T03:41:50.354Z,101420.63
2022-08-14T03:45:20.111Z,101411.28
2022-08-14T03:47:06.664Z,101408.47
2022-08-14T03:49:41.947Z,101397.75
2022-08-14T03:52:37.561Z,101409.91
2022-08-14T03:55:00.565Z,101411.00
2022-08-14T03:57:32.881Z,101394.97
2022-08-14T04:00:08.978Z,101393.84
2022-08-14T04:02:46.759Z,101409.97
2022-08-14T04:05:16.625Z,101417.25
2022-08-14T04:07:49.998Z,101404.53
2022-08-14T04:10:34.544Z,101389.88
2022-08-14T04:13:06.318Z,101387.13
2022-08-14T04:15:55.929Z,101374.78
2022-08-14T04:18:24.113Z,101359.63
2022-08-14T04:20:55.186Z,101350.97
2022-08-14T04:23:29.409Z,101353.63
2022-08-14T04:26:01.738Z,101359.72
2022-08-14T04:29:02.226Z,101376.50
2022-08-14T04:32:56.371Z,101416.81
2022-08-14T04:34:16.971Z,101434.03
2022-08-14T04:36:59.108Z,101443.97
2022-08-14T04:39:46.576Z,101453.59
2022-08-14T04:42:32.516Z,101453.00
2022-08-14T04:45:01.761Z,101452.47
2022-08-14T04:47:46.827Z,101451.63
2022-08-14T04:50:33.649Z,101445.78
2022-08-14T04:53:11.096Z,101435.72
2022-08-14T04:55:39.077Z,101428.09
2022-08-14T04:58:07.062Z,101423.72
2022-08-14T05:00:52.396Z,101411.31
2022-08-14T05:03:21.545Z,101392.13
2022-08-14T05:05:55.986Z,101387.78
2022-08-14T05:08:32.035Z,101394.59
2022-08-14T05:11:13.900Z,101391.63
2022-08-14T05:16:33.103Z,101400.16
2022-08-14T05:19:17.683Z,101410.66
2022-08-14T05:21:59.411Z,101410.91
2022-08-14T05:24:28.944Z,101396.69
2022-08-14T05:26:57.102Z,101392.97
2022-08-14T05:29:27.503Z,101371.22
2022-08-14T05:31:58.214Z,101361.28
2022-08-14T05:34:31.901Z,101367.06
2022-08-14T05:37:03.317Z,101346.31
2022-08-14T05:39:31.897Z,101314.84
2022-08-14T05:42:00.498Z,101311.63
2022-08-14T05:44:30.860Z,101311.09
2022-08-14T05:47:00.384Z,101292.44
2022-08-14T05:49:33.177Z,101291.81
2022-08-14T05:52:02.616Z,101279.81
2022-08-14T05:54:35.502Z,101261.13
2022-08-14T05:57:04.442Z,101248.47
2022-08-14T05:59:39.385Z,101221.38
2022-08-14T06:02:10.101Z,101186.66
2022-08-14T06:04:38.521Z,101183.94
2022-08-14T06:07:06.511Z,101186.47
2022-08-14T06:09:35.776Z,101182.28
2022-08-14T06:12:09.677Z,101174.91
2022-08-14T06:14:37.877Z,101176.38
2022-08-14T06:17:08.032Z,101174.19
2022-08-14T06:19:37.270Z,101127.91
2022-08-14T06:22:05.515Z,101097.22
2022-08-14T06:24:34.970Z,101065.94
2022-08-14T06:27:06.172Z,101044.28
2022-08-14T06:29:38.931Z,101035.28
2022-08-14T06:32:37.619Z,101024.50
2022-08-14T06:35:03.613Z,101011.38
2022-08-14T06:37:41.968Z,100990.94
2022-08-14T06:40:25.674Z,100974.28
2022-08-14T06:43:00.341Z,100928.22
2022-08-14T06:45:31.839Z,100912.41
2022-08-14T06:48:01.160Z,100886.25
2022-08-14T06:50:31.676Z,100877.59
2022-08-14T06:53:01.730Z,100880.53
2022-08-14T06:55:29.643Z,100877.09
2022-08-14T06:57:58.272Z,100874.97
2022-08-14T07:00:31.166Z,100894.81
2022-08-14T07:03:17.290Z,100914.34
2022-08-14T07:05:57.672Z,100921.41
2022-08-14T07:08:31.179Z,100933.44
2022-08-14T07:11:01.532Z,100941.81
2022-08-14T07:13:31.104Z,100953.06
2022-08-14T07:16:05.490Z,100953.66
2022-08-14T07:18:35.395Z,100949.84
2022-08-14T07:21:07.418Z,100972.88
2022-08-14T07:23:40.168Z,100974.31
2022-08-14T07:26:13.546Z,100991.88
2022-08-14T07:28:43.916Z,100998.22
2022-08-14T07:31:13.720Z,100995.88
2022-08-14T07:33:50.145Z,101015.72
2022-08-14T07:36:27.748Z,101013.13
2022-08-14T07:38:59.071Z,101037.59
2022-08-14T07:41:33.959Z,101050.16
2022-08-14T07:44:29.059Z,101054.38
2022-08-14T07:46:51.731Z,101060.19
2022-08-14T07:49:19.919Z,101081.94
2022-08-14T07:51:50.749Z,101084.41
2022-08-14T07:54:23.472Z,101099.59
2022-08-14T07:56:59.770Z,101119.13
2022-08-14T07:59:42.202Z,101118.81
2022-08-14T08:02:18.657Z,101131.59
2022-08-14T08:04:50.515Z,101131.56
2022-08-14T08:07:24.077Z,101127.63
2022-08-14T08:09:57.063Z,101146.44
2022-08-14T08:12:28.139Z,101163.06
2022-08-14T08:15:05.974Z,101181.19
2022-08-14T08:17:42.293Z,101181.78
2022-08-14T08:20:19.985Z,101174.78
2022-08-14T08:22:55.632Z,101169.47
2022-08-14T08:25:24.320Z,101188.19
2022-08-14T08:27:57.304Z,101186.56
2022-08-14T08:30:25.828Z,101192.19
2022-08-14T08:32:56.281Z,101206.47
2022-08-14T08:35:46.485Z,101200.00
2022-08-14T08:39:17.840Z,101208.03
2022-08-14T08:41:10.860Z,101204.47
2022-08-14T08:43:46.791Z,101200.72
2022-08-14T08:46:23.731Z,101201.00
2022-08-14T08:51:31.104Z,101186.97
2022-08-14T08:54:05.035Z,101192.53
2022-08-14T08:56:39.852Z,101189.97
2022-08-14T08:59:20.321Z,101181.78
2022-08-14T09:01:51.577Z,101185.06
2022-08-14T09:04:24.758Z,101190.19
2022-08-14T09:07:10.318Z,101187.00
2022-08-14T09:09:53.617Z,101187.28
2022-08-14T09:12:26.826Z,101183.13
2022-08-14T09:14:55.772Z,101187.19
2022-08-14T09:17:25.836Z,101186.19
2022-08-14T09:19:54.492Z,101193.19
2022-08-14T09:22:35.742Z,101198.16
2022-08-14T09:25:07.963Z,101202.69
2022-08-14T09:27:37.433Z,101209.47
2022-08-14T09:30:31.180Z,101208.03
2022-08-14T09:33:19.495Z,101210.63
2022-08-14T09:36:04.417Z,101196.78
2022-08-14T09:38:45.646Z,101205.53
2022-08-14T09:42:20.280Z,101207.16
2022-08-14T09:44:42.016Z,101202.31
2022-08-14T09:47:15.354Z,101208.13
2022-08-14T09:49:43.502Z,101212.50
2022-08-14T09:52:23.640Z,101208.66
2022-08-14T09:55:01.420Z,101206.88
2022-08-14T09:57:32.593Z,101205.97
2022-08-14T10:00:28.635Z,101201.88
2022-08-14T10:03:05.114Z,101199.44
2022-08-14T10:05:38.019Z,101205.44
2022-08-14T10:08:22.009Z,101197.19
2022-08-14T10:11:02.832Z,101194.94
2022-08-14T10:13:43.242Z,101205.22
2022-08-14T10:16:27.617Z,101190.38
2022-08-14T10:19:09.547Z,101196.38
2022-08-14T10:21:38.553Z,101177.78
2022-08-14T10:24:36.191Z,101175.06
2022-08-14T10:27:06.477Z,101167.50
2022-08-14T10:29:38.396Z,101162.78
2022-08-14T10:32:17.788Z,101163.41
2022-08-14T10:35:13.749Z,101163.19
2022-08-14T10:37:48.323Z,101165.94
2022-08-14T10:40:38.087Z,101157.09
2022-08-14T10:43:18.418Z,101155.19
2022-08-14T10:46:03.369Z,101150.06
2022-08-14T10:48:58.332Z,101150.81
2022-08-14T10:51:27.333Z,101145.09
2022-08-14T10:54:01.874Z,101141.16
2022-08-14T10:56:45.563Z,101149.88
2022-08-14T10:59:13.842Z,101125.69
2022-08-14T11:01:43.297Z,101141.16
2022-08-14T11:04:30.116Z,101131.69
2022-08-14T11:06:59.845Z,101135.66
2022-08-14T11:09:31.515Z,101136.09
2022-08-14T11:12:34.765Z,101126.72
2022-08-14T11:14:59.866Z,101127.44
2022-08-14T11:17:32.870Z,101117.00
2022-08-14T11:20:02.647Z,101117.53
2022-08-14T11:22:56.510Z,101120.78
2022-08-14T11:25:23.623Z,101113.94
2022-08-14T11:27:53.268Z,101109.03
2022-08-14T11:30:49.832Z,101112.81
2022-08-14T11:33:14.055Z,101099.38
2022-08-14T11:35:49.770Z,101101.91
2022-08-14T11:38:21.437Z,101099.00
2022-08-14T11:40:49.473Z,101092.88
2022-08-14T11:43:18.411Z,101099.78
2022-08-14T11:45:52.166Z,101083.34
2022-08-14T11:49:03.016Z,101083.47
2022-08-14T11:51:14.565Z,101080.69
2022-08-14T11:53:44.671Z,101076.53
2022-08-14T11:56:13.822Z,101067.56
2022-08-14T11:58:42.445Z,101071.84
2022-08-14T12:01:10.908Z,101072.84
2022-08-14T12:03:52.174Z,101075.41
2022-08-14T12:06:29.267Z,101068.59
2022-08-14T12:09:08.804Z,101060.59
2022-08-14T12:11:47.027Z,101067.44
2022-08-14T12:14:29.954Z,101070.69
2022-08-14T12:17:05.099Z,101057.72
2022-08-14T12:19:51.255Z,101056.59
2022-08-14T12:22:34.486Z,101053.25
2022-08-14T12:25:06.118Z,101059.72
2022-08-14T12:27:52.689Z,101057.41
2022-08-14T12:30:34.392Z,101048.22
2022-08-14T12:33:08.710Z,101054.53
2022-08-14T12:35:39.702Z,101046.69
2022-08-14T12:38:09.175Z,101038.13
2022-08-14T12:40:48.968Z,101023.53
2022-08-14T12:43:19.652Z,101024.22
2022-08-14T12:45:51.200Z,101017.41
2022-08-14T12:48:21.729Z,101018.81
2022-08-14T12:51:00.910Z,101013.09
2022-08-14T12:53:38.356Z,101011.16
2022-08-14T12:56:22.646Z,101020.84
2022-08-14T12:58:57.849Z,101011.81
2022-08-14T13:01:28.723Z,101010.38
2022-08-14T13:04:07.257Z,101002.47
2022-08-14T13:06:37.122Z,100999.81
2022-08-14T13:09:10.987Z,100988.88
2022-08-14T13:11:44.836Z,100991.84
2022-08-14T13:14:17.520Z,100994.91
2022-08-14T13:16:50.207Z,100989.41
2022-08-14T13:19:19.867Z,100986.97
2022-08-14T13:22:05.721Z,100978.47
2022-08-14T13:24:39.936Z,100978.16
2022-08-14T13:27:09.752Z,100963.53
2022-08-14T13:29:46.634Z,100956.66
2022-08-14T13:32:15.129Z,100962.44
2022-08-14T13:34:45.373Z,100949.56
2022-08-14T13:37:17.050Z,100965.34
2022-08-14T13:39:56.254Z,100961.13
2022-08-14T13:42:26.357Z,100954.19
2022-08-14T13:44:55.676Z,100947.56
2022-08-14T13:47:30.326Z,100946.28
2022-08-14T13:50:02.736Z,100937.09
2022-08-14T13:52:51.265Z,100946.38
2022-08-14T13:55:23.712Z,100945.44
2022-08-14T13:57:59.476Z,100942.03
2022-08-14T14:00:35.440Z,100946.91
2022-08-14T14:03:08.658Z,100938.75
2022-08-14T14:05:53.008Z,100935.31
2022-08-14T14:08:46.658Z,100928.94
2022-08-14T14:11:16.039Z,100926.00
2022-08-14T14:13:45.868Z,100932.50
2022-08-14T14:16:25.976Z,100930.44
2022-08-14T14:19:09.732Z,100931.63
2022-08-14T14:21:40.685Z,100933.66
2022-08-14T14:24:15.206Z,100934.56
2022-08-14T14:26:46.794Z,100941.13
2022-08-14T14:29:15.011Z,100934.53
2022-08-14T14:31:48.394Z,100937.06
2022-08-14T14:34:29.348Z,100937.59
2022-08-14T14:37:04.768Z,100935.81
2022-08-14T14:39:37.955Z,100919.53
2022-08-14T14:42:31.616Z,100925.41
2022-08-14T14:45:05.843Z,100928.72
2022-08-14T14:47:35.220Z,100938.13
2022-08-14T14:50:05.018Z,100929.94
2022-08-14T14:52:39.493Z,100917.13
2022-08-14T14:55:12.913Z,100919.50
2022-08-14T14:57:45.778Z,100921.59
2022-08-14T15:00:21.246Z,100925.50
2022-08-14T15:02:51.560Z,100927.09
2022-08-14T15:05:21.170Z,100930.25
2022-08-14T15:07:51.113Z,100916.91
2022-08-14T15:10:26.694Z,100919.38
2022-08-14T15:13:03.695Z,100920.84
2022-08-14T15:15:33.162Z,100916.28
2022-08-14T15:18:01.567Z,100920.84
2022-08-14T15:20:31.220Z,100923.97
2022-08-14T15:23:00.979Z,100921.22
2022-08-14T15:25:42.507Z,100915.81
2022-08-14T15:28:13.082Z,100919.38
2022-08-14T15:30:51.000Z,100918.81
2022-08-14T15:34:33.775Z,100911.03
2022-08-14T15:36:29.501Z,100916.00
2022-08-14T15:38:58.918Z,100907.97
2022-08-14T15:41:33.814Z,100899.63
2022-08-14T15:44:24.626Z,100899.47
2022-08-14T15:46:55.763Z,100894.84
2022-08-14T15:49:28.575Z,100895.22
2022-08-14T15:52:03.171Z,100886.88
2022-08-14T15:54:32.390Z,100888.19
2022-08-14T15:57:04.588Z,100883.91
2022-08-14T15:59:53.952Z,100889.41
2022-08-14T16:02:24.516Z,100883.59
2022-08-14T16:04:55.550Z,100878.47
2022-08-14T16:07:25.261Z,100884.94
2022-08-14T16:10:25.283Z,100880.97
2022-08-14T16:12:47.618Z,100881.88
2022-08-14T16:15:16.713Z,100890.88
2022-08-14T16:17:45.966Z,100887.94
2022-08-14T16:20:40.888Z,100880.56
2022-08-14T16:25:52.742Z,100879.94
2022-08-14T16:28:27.534Z,100884.16
2022-08-14T16:30:56.734Z,100879.19
2022-08-14T16:36:30.507Z,100873.28
2022-08-14T16:39:07.463Z,100878.41
2022-08-14T16:41:36.585Z,100873.91
2022-08-14T16:44:21.798Z,100874.50
2022-08-14T16:47:03.172Z,100866.69
2022-08-14T16:50:02.972Z,100864.72
2022-08-14T16:52:43.704Z,100861.94
2022-08-14T16:55:08.535Z,100864.09
2022-08-14T16:57:50.013Z,100862.81
2022-08-14T17:00:32.608Z,100861.69
2022-08-14T17:03:04.039Z,100858.09
2022-08-14T17:05:38.125Z,100860.13
2022-08-14T17:08:32.737Z,100855.88
2022-08-14T17:11:10.159Z,100852.91
2022-08-14T17:13:58.229Z,100856.50
2022-08-14T17:16:37.055Z,100857.41
2022-08-14T17:19:09.820Z,100846.22
2022-08-14T17:21:42.000Z,100838.59
2022-08-14T17:24:56.788Z,100847.72
2022-08-14T17:27:04.096Z,100848.88
2022-08-14T17:29:33.774Z,100846.66
2022-08-14T17:32:28.180Z,100843.06
2022-08-14T17:35:01.763Z,100851.06
2022-08-14T17:37:34.319Z,100841.53
2022-08-14T17:40:13.749Z,100842.31
2022-08-14T17:43:01.676Z,100852.34
2022-08-14T17:45:45.461Z,100846.28
2022-08-14T17:49:14.228Z,100846.41
2022-08-14T17:51:23.752Z,100840.59
2022-08-14T17:54:02.933Z,100847.72
2022-08-14T17:56:32.252Z,100850.53
2022-08-14T17:59:03.990Z,100835.41
2022-08-14T18:01:37.646Z,100841.63
2022-08-14T18:04:25.173Z,100842.00
2022-08-14T18:07:16.290Z,100847.75
2022-08-14T18:09:56.877Z,100842.75
2022-08-14T18:12:32.346Z,100850.91
2022-08-14T18:15:14.782Z,100855.84
2022-08-14T18:17:52.973Z,100855.19
2022-08-14T18:21:23.956Z,100859.06
2022-08-14T18:23:14.540Z,100861.97
2022-08-14T18:25:49.416Z,100850.94
2022-08-14T18:28:51.061Z,100854.72
2022-08-14T18:31:42.125Z,100837.34
2022-08-14T18:34:32.411Z,100826.31
2022-08-14T18:37:16.983Z,100817.34
2022-08-14T18:40:03.224Z,100813.78
2022-08-14T18:42:45.393Z,100803.88
2022-08-14T18:45:18.758Z,100800.53
2022-08-14T18:48:19.346Z,100798.91
2022-08-14T18:50:52.280Z,100785.03
2022-08-14T18:53:24.353Z,100773.38
2022-08-14T18:55:55.677Z,100761.03
2022-08-14T18:58:31.091Z,100753.03
2022-08-14T19:01:04.498Z,100753.78
2022-08-14T19:03:57.705Z,100737.00
2022-08-14T19:06:56.255Z,100712.47
2022-08-14T19:09:56.322Z,100711.97
2022-08-14T19:13:03.048Z,100685.63
2022-08-14T19:15:34.235Z,100682.91
2022-08-14T19:18:19.721Z,100656.22
2022-08-14T19:20:56.504Z,100652.09
2022-08-14T19:23:42.746Z,100649.75
2022-08-14T19:26:36.774Z,100623.84
2022-08-14T19:29:23.983Z,100618.19
2022-08-14T19:31:55.322Z,100608.44
2022-08-14T19:34:52.111Z,100605.16
2022-08-14T19:37:45.877Z,100597.94
2022-08-14T19:40:19.441Z,100599.88
2022-08-14T19:42:50.270Z,100574.44
2022-08-14T19:45:18.728Z,100570.81
2022-08-14T19:47:49.910Z,100555.72
2022-08-14T19:50:30.976Z,100570.13
2022-08-14T19:53:16.496Z,100546.22
2022-08-14T19:55:55.558Z,100542.84
2022-08-14T19:58:37.280Z,100534.47
2022-08-14T20:01:08.526Z,100515.22
2022-08-14T20:04:00.072Z,100530.00
2022-08-14T20:06:46.434Z,100517.63
2022-08-14T20:11:08.262Z,100518.22
2022-08-14T20:12:04.874Z,100509.31
2022-08-14T20:14:37.752Z,100492.28
2022-08-14T20:17:08.554Z,100480.53
2022-08-14T20:19:37.548Z,100477.47
2022-08-14T20:22:36.651Z,100444.69
2022-08-14T20:25:11.914Z,100430.59
2022-08-14T20:27:44.066Z,100413.50
2022-08-14T20:30:37.607Z,100403.75
2022-08-14T20:33:10.649Z,100405.31
2022-08-14T20:35:44.044Z,100391.91
2022-08-14T20:38:29.424Z,100374.16
2022-08-14T20:41:01.570Z,100365.84
2022-08-14T20:43:54.280Z,100372.41
2022-08-14T20:46:29.539Z,100357.84
2022-08-14T20:49:00.194Z,100347.16
2022-08-14T20:51:37.344Z,100332.25
2022-08-14T20:54:07.536Z,100332.59
2022-08-14T20:56:38.083Z,100324.84
2022-08-14T20:59:18.085Z,100330.25
2022-08-14T21:01:51.859Z,100327.31
2022-08-14T21:04:27.089Z,100322.78
2022-08-14T21:07:24.857Z,100319.31
2022-08-14T21:10:06.119Z,100322.50
2022-08-14T21:12:36.040Z,100314.50
2022-08-14T21:15:09.922Z,100315.56
2022-08-14T21:17:41.483Z,100322.00
2022-08-14T21:20:26.108Z,100315.22
2022-08-14T21:23:00.560Z,100311.34
2022-08-14T21:25:31.709Z,100301.72
2022-08-14T21:28:03.299Z,100292.00
2022-08-14T21:30:51.434Z,100299.59
2022-08-14T21:33:23.526Z,100298.56
2022-08-14T21:35:54.853Z,100293.16
2022-08-14T21:38:34.310Z,100295.28
2022-08-14T21:41:43.556Z,100295.50
2022-08-14T21:44:17.607Z,100291.97
2022-08-14T21:46:53.631Z,100299.97
2022-08-14T21:49:25.639Z,100292.44
2022-08-14T21:52:51.795Z,100297.44
2022-08-14T21:54:55.604Z,100298.50
2022-08-14T21:57:53.664Z,100302.53
2022-08-14T22:00:35.278Z,100298.16
2022-08-14T22:03:05.414Z,100283.19
2022-08-14T22:05:35.087Z,100292.22
2022-08-14T22:08:06.821Z,100292.16
2022-08-14T22:10:35.856Z,100295.31
2022-08-14T22:13:05.313Z,100299.03
2022-08-14T22:15:35.484Z,100331.44
2022-08-14T22:18:04.465Z,100354.34
2022-08-14T22:20:36.004Z,100371.56
2022-08-14T22:23:08.592Z,100404.22
2022-08-14T22:25:41.271Z,100415.38
2022-08-14T22:28:12.069Z,100431.19
2022-08-14T22:30:41.548Z,100445.94
2022-08-14T22:33:13.374Z,100460.91
2022-08-14T22:35:43.634Z,100462.41
2022-08-14T22:38:37.073Z,100479.34
2022-08-14T22:41:25.464Z,100473.28
2022-08-14T22:43:51.094Z,100457.69
2022-08-14T22:46:20.288Z,100439.94
2022-08-14T22:48:49.447Z,100444.53
2022-08-14T22:51:22.467Z,100457.72
2022-08-14T22:53:53.173Z,100486.16
2022-08-14T22:56:30.298Z,100479.97
2022-08-14T22:59:00.141Z,100467.34
2022-08-14T23:01:46.159Z,100440.38
2022-08-14T23:04:35.519Z,100426.91
2022-08-14T23:07:14.718Z,100435.78
2022-08-14T23:09:56.446Z,100465.06
2022-08-14T23:12:27.717Z,100541.84
2022-08-14T23:15:05.994Z,100585.25
2022-08-14T23:17:38.633Z,100592.88
2022-08-14T23:20:18.546Z,100593.31
2022-08-14T23:22:51.477Z,100574.31
2022-08-14T23:25:57.484Z,100550.00
2022-08-14T23:28:34.556Z,100529.53
2022-08-14T23:30:57.328Z,100525.34
2022-08-14T23:33:29.143Z,100559.41
2022-08-14T23:35:59.348Z,100595.50
2022-08-14T23:38:30.338Z,100620.31
2022-08-14T23:41:00.749Z,100616.81
2022-08-14T23:43:31.035Z,100610.94
2022-08-14T23:46:00.500Z,100561.22
2022-08-14T23:48:29.250Z,100544.19
2022-08-14T23:50:58.757Z,100538.81
2022-08-14T23:53:47.755Z,100538.47
2022-08-14T23:56:30.193Z,100542.72
2022-08-14T23:59:01.023Z,100581.06
